sensor_id;sensor_type;location;lat;lon;timestamp;P1;durP1;ratioP1;P2;durP2;ratioP2
11052;SDS011;55230;42.602;23.470;2022-10-17T00:00:26;5.80;;;4.97;;
11052;SDS011;55230;42.602;23.470;2022-10-17T00:02:53;7.07;;;4.53;;
11052;SDS011;55230;42.602;23.470;2022-10-17T00:05:20;7.47;;;5.40;;
11052;SDS011;55230;42.602;23.470;2022-10-17T00:07:47;6.37;;;5.47;;
11052;SDS011;55230;42.602;23.470;2022-10-17T00:10:14;7.67;;;6.00;;
11052;SDS011;55230;42.602;23.470;2022-10-17T00:12:42;7.67;;;5.87;;
11052;SDS011;55230;42.602;23.470;2022-10-17T00:15:09;6.13;;;5.30;;
11052;SDS011;55230;42.602;23.470;2022-10-17T00:17:39;6.30;;;5.17;;
11052;SDS011;55230;42.602;23.470;2022-10-17T00:20:07;6.73;;;5.50;;
11052;SDS011;55230;42.602;23.470;2022-10-17T00:22:34;6.93;;;5.60;;
11052;SDS011;55230;42.602;23.470;2022-10-17T00:25:01;6.80;;;6.03;;
11052;SDS011;55230;42.602;23.470;2022-10-17T00:27:27;7.73;;;5.93;;
11052;SDS011;55230;42.602;23.470;2022-10-17T00:29:55;8.37;;;5.73;;
11052;SDS011;55230;42.602;23.470;2022-10-17T00:32:23;8.17;;;6.47;;
11052;SDS011;55230;42.602;23.470;2022-10-17T00:34:50;9.43;;;5.67;;
11052;SDS011;55230;42.602;23.470;2022-10-17T00:37:16;7.93;;;5.77;;
11052;SDS011;55230;42.602;23.470;2022-10-17T00:39:43;7.50;;;5.70;;
11052;SDS011;55230;42.602;23.470;2022-10-17T00:42:11;9.53;;;5.67;;
11052;SDS011;55230;42.602;23.470;2022-10-17T00:45:00;8.30;;;5.73;;
11052;SDS011;55230;42.602;23.470;2022-10-17T00:47:32;7.10;;;5.70;;
11052;SDS011;55230;42.602;23.470;2022-10-17T00:50:01;7.80;;;6.17;;
11052;SDS011;55230;42.602;23.470;2022-10-17T00:52:30;7.83;;;5.90;;
11052;SDS011;55230;42.602;23.470;2022-10-17T00:55:00;8.97;;;6.40;;
11052;SDS011;55230;42.602;23.470;2022-10-17T00:57:33;7.33;;;6.10;;
11052;SDS011;55230;42.602;23.470;2022-10-17T01:00:03;7.73;;;6.40;;
11052;SDS011;55230;42.602;23.470;2022-10-17T01:02:32;7.53;;;6.10;;
11052;SDS011;55230;42.602;23.470;2022-10-17T01:04:59;7.33;;;6.17;;
11052;SDS011;55230;42.602;23.470;2022-10-17T01:07:26;6.83;;;6.10;;
11052;SDS011;55230;42.602;23.470;2022-10-17T01:09:54;9.43;;;6.70;;
11052;SDS011;55230;42.602;23.470;2022-10-17T01:12:23;7.83;;;6.57;;
11052;SDS011;55230;42.602;23.470;2022-10-17T01:14:56;7.97;;;6.40;;
11052;SDS011;55230;42.602;23.470;2022-10-17T01:17:33;9.67;;;6.93;;
11052;SDS011;55230;42.602;23.470;2022-10-17T01:20:22;10.67;;;6.70;;
11052;SDS011;55230;42.602;23.470;2022-10-17T01:23:13;7.57;;;6.40;;
11052;SDS011;55230;42.602;23.470;2022-10-17T01:25:51;8.43;;;6.93;;
11052;SDS011;55230;42.602;23.470;2022-10-17T01:28:33;6.73;;;5.80;;
11052;SDS011;55230;42.602;23.470;2022-10-17T01:31:23;7.70;;;6.70;;
11052;SDS011;55230;42.602;23.470;2022-10-17T01:33:57;9.00;;;6.57;;
11052;SDS011;55230;42.602;23.470;2022-10-17T01:36:35;8.43;;;6.57;;
11052;SDS011;55230;42.602;23.470;2022-10-17T01:39:09;9.90;;;6.60;;
11052;SDS011;55230;42.602;23.470;2022-10-17T01:41:41;8.13;;;6.87;;
11052;SDS011;55230;42.602;23.470;2022-10-17T01:44:12;8.23;;;6.37;;
11052;SDS011;55230;42.602;23.470;2022-10-17T01:46:47;8.17;;;6.50;;
11052;SDS011;55230;42.602;23.470;2022-10-17T01:49:16;9.33;;;6.43;;
11052;SDS011;55230;42.602;23.470;2022-10-17T01:51:48;9.20;;;7.03;;
11052;SDS011;55230;42.602;23.470;2022-10-17T01:54:19;9.63;;;6.73;;
11052;SDS011;55230;42.602;23.470;2022-10-17T01:56:50;7.93;;;6.90;;
11052;SDS011;55230;42.602;23.470;2022-10-17T01:59:21;9.23;;;6.67;;
11052;SDS011;55230;42.602;23.470;2022-10-17T02:01:52;10.87;;;6.90;;
11052;SDS011;55230;42.602;23.470;2022-10-17T02:04:21;8.67;;;6.90;;
11052;SDS011;55230;42.602;23.470;2022-10-17T02:06:48;7.60;;;6.47;;
11052;SDS011;55230;42.602;23.470;2022-10-17T02:09:19;8.07;;;6.77;;
11052;SDS011;55230;42.602;23.470;2022-10-17T02:11:50;7.77;;;6.97;;
11052;SDS011;55230;42.602;23.470;2022-10-17T02:14:24;8.03;;;6.77;;
11052;SDS011;55230;42.602;23.470;2022-10-17T02:17:07;9.30;;;7.47;;
11052;SDS011;55230;42.602;23.470;2022-10-17T02:19:44;7.83;;;7.00;;
11052;SDS011;55230;42.602;23.470;2022-10-17T02:22:21;8.00;;;6.33;;
11052;SDS011;55230;42.602;23.470;2022-10-17T02:24:57;8.57;;;7.00;;
11052;SDS011;55230;42.602;23.470;2022-10-17T02:27:32;9.20;;;7.37;;
11052;SDS011;55230;42.602;23.470;2022-10-17T02:30:04;9.47;;;7.13;;
11052;SDS011;55230;42.602;23.470;2022-10-17T02:32:35;9.37;;;7.27;;
11052;SDS011;55230;42.602;23.470;2022-10-17T02:35:09;8.57;;;6.93;;
11052;SDS011;55230;42.602;23.470;2022-10-17T02:37:39;8.73;;;7.47;;
11052;SDS011;55230;42.602;23.470;2022-10-17T02:40:09;9.20;;;7.13;;
11052;SDS011;55230;42.602;23.470;2022-10-17T02:42:38;11.90;;;7.07;;
11052;SDS011;55230;42.602;23.470;2022-10-17T02:45:09;10.53;;;7.60;;
11052;SDS011;55230;42.602;23.470;2022-10-17T02:47:38;11.33;;;7.30;;
11052;SDS011;55230;42.602;23.470;2022-10-17T02:50:15;10.40;;;8.13;;
11052;SDS011;55230;42.602;23.470;2022-10-17T02:52:44;8.60;;;7.30;;
11052;SDS011;55230;42.602;23.470;2022-10-17T02:55:18;7.80;;;6.87;;
11052;SDS011;55230;42.602;23.470;2022-10-17T02:57:48;7.60;;;6.57;;
11052;SDS011;55230;42.602;23.470;2022-10-17T03:00:18;12.30;;;7.20;;
11052;SDS011;55230;42.602;23.470;2022-10-17T03:02:49;11.27;;;7.23;;
11052;SDS011;55230;42.602;23.470;2022-10-17T03:05:17;8.53;;;7.13;;
11052;SDS011;55230;42.602;23.470;2022-10-17T03:07:45;8.40;;;6.73;;
11052;SDS011;55230;42.602;23.470;2022-10-17T03:10:12;12.17;;;8.60;;
11052;SDS011;55230;42.602;23.470;2022-10-17T03:12:39;12.20;;;7.50;;
11052;SDS011;55230;42.602;23.470;2022-10-17T03:15:06;9.73;;;7.83;;
11052;SDS011;55230;42.602;23.470;2022-10-17T03:17:33;10.17;;;7.33;;
11052;SDS011;55230;42.602;23.470;2022-10-17T03:20:02;11.97;;;7.70;;
11052;SDS011;55230;42.602;23.470;2022-10-17T03:22:29;12.17;;;7.70;;
11052;SDS011;55230;42.602;23.470;2022-10-17T03:24:56;17.53;;;12.33;;
11052;SDS011;55230;42.602;23.470;2022-10-17T03:27:23;15.07;;;10.17;;
11052;SDS011;55230;42.602;23.470;2022-10-17T03:29:50;10.77;;;8.07;;
11052;SDS011;55230;42.602;23.470;2022-10-17T03:32:16;9.10;;;7.03;;
11052;SDS011;55230;42.602;23.470;2022-10-17T03:34:43;11.40;;;7.70;;
11052;SDS011;55230;42.602;23.470;2022-10-17T03:37:11;10.93;;;7.30;;
11052;SDS011;55230;42.602;23.470;2022-10-17T03:39:38;9.80;;;6.90;;
11052;SDS011;55230;42.602;23.470;2022-10-17T03:42:05;9.90;;;7.57;;
11052;SDS011;55230;42.602;23.470;2022-10-17T03:44:32;10.43;;;7.10;;
11052;SDS011;55230;42.602;23.470;2022-10-17T03:46:58;10.93;;;7.37;;
11052;SDS011;55230;42.602;23.470;2022-10-17T03:49:25;9.87;;;7.57;;
11052;SDS011;55230;42.602;23.470;2022-10-17T03:51:52;14.60;;;7.80;;
11052;SDS011;55230;42.602;23.470;2022-10-17T03:54:20;9.03;;;7.27;;
11052;SDS011;55230;42.602;23.470;2022-10-17T03:56:47;10.83;;;8.13;;
11052;SDS011;55230;42.602;23.470;2022-10-17T03:59:14;10.30;;;8.03;;
11052;SDS011;55230;42.602;23.470;2022-10-17T04:01:41;11.43;;;8.00;;
11052;SDS011;55230;42.602;23.470;2022-10-17T04:04:08;14.90;;;8.40;;
11052;SDS011;55230;42.602;23.470;2022-10-17T04:06:35;9.33;;;7.37;;
11052;SDS011;55230;42.602;23.470;2022-10-17T04:09:03;13.73;;;8.43;;
11052;SDS011;55230;42.602;23.470;2022-10-17T04:11:32;12.07;;;8.27;;
11052;SDS011;55230;42.602;23.470;2022-10-17T04:13:59;10.03;;;7.83;;
11052;SDS011;55230;42.602;23.470;2022-10-17T04:16:26;10.23;;;8.10;;
11052;SDS011;55230;42.602;23.470;2022-10-17T04:18:53;10.07;;;7.77;;
11052;SDS011;55230;42.602;23.470;2022-10-17T04:21:21;9.80;;;8.07;;
11052;SDS011;55230;42.602;23.470;2022-10-17T04:23:51;10.40;;;7.67;;
11052;SDS011;55230;42.602;23.470;2022-10-17T04:26:18;13.47;;;10.10;;
11052;SDS011;55230;42.602;23.470;2022-10-17T04:28:47;36.67;;;23.27;;
11052;SDS011;55230;42.602;23.470;2022-10-17T04:31:13;12.40;;;9.47;;
11052;SDS011;55230;42.602;23.470;2022-10-17T04:33:41;10.37;;;7.70;;
11052;SDS011;55230;42.602;23.470;2022-10-17T04:36:09;9.23;;;7.70;;
11052;SDS011;55230;42.602;23.470;2022-10-17T04:38:37;10.57;;;7.97;;
11052;SDS011;55230;42.602;23.470;2022-10-17T04:41:05;11.83;;;8.23;;
11052;SDS011;55230;42.602;23.470;2022-10-17T04:43:34;10.23;;;8.27;;
11052;SDS011;55230;42.602;23.470;2022-10-17T04:46:03;11.13;;;8.10;;
11052;SDS011;55230;42.602;23.470;2022-10-17T04:48:31;9.87;;;7.33;;
11052;SDS011;55230;42.602;23.470;2022-10-17T04:50:59;12.07;;;8.70;;
11052;SDS011;55230;42.602;23.470;2022-10-17T04:53:28;11.67;;;8.73;;
11052;SDS011;55230;42.602;23.470;2022-10-17T04:55:56;13.30;;;8.50;;
11052;SDS011;55230;42.602;23.470;2022-10-17T04:58:23;12.13;;;8.13;;
11052;SDS011;55230;42.602;23.470;2022-10-17T05:00:50;16.03;;;11.07;;
11052;SDS011;55230;42.602;23.470;2022-10-17T05:03:18;15.93;;;11.07;;
11052;SDS011;55230;42.602;23.470;2022-10-17T05:05:46;10.17;;;8.40;;
11052;SDS011;55230;42.602;23.470;2022-10-17T05:08:12;14.73;;;9.80;;
11052;SDS011;55230;42.602;23.470;2022-10-17T05:10:40;20.43;;;13.20;;
11052;SDS011;55230;42.602;23.470;2022-10-17T05:13:09;22.63;;;14.27;;
11052;SDS011;55230;42.602;23.470;2022-10-17T05:15:36;22.50;;;15.33;;
11052;SDS011;55230;42.602;23.470;2022-10-17T05:18:03;24.97;;;15.77;;
11052;SDS011;55230;42.602;23.470;2022-10-17T05:20:32;22.30;;;15.03;;
11052;SDS011;55230;42.602;23.470;2022-10-17T05:22:59;23.77;;;13.87;;
11052;SDS011;55230;42.602;23.470;2022-10-17T05:25:26;22.73;;;14.40;;
11052;SDS011;55230;42.602;23.470;2022-10-17T05:27:53;22.20;;;14.30;;
11052;SDS011;55230;42.602;23.470;2022-10-17T05:30:20;22.63;;;14.50;;
11052;SDS011;55230;42.602;23.470;2022-10-17T05:32:47;18.37;;;13.13;;
11052;SDS011;55230;42.602;23.470;2022-10-17T05:35:16;19.30;;;13.37;;
11052;SDS011;55230;42.602;23.470;2022-10-17T05:37:44;15.00;;;11.03;;
11052;SDS011;55230;42.602;23.470;2022-10-17T05:40:11;18.83;;;11.83;;
11052;SDS011;55230;42.602;23.470;2022-10-17T05:42:38;13.47;;;10.70;;
11052;SDS011;55230;42.602;23.470;2022-10-17T05:45:05;14.70;;;11.20;;
11052;SDS011;55230;42.602;23.470;2022-10-17T05:47:32;14.60;;;10.53;;
11052;SDS011;55230;42.602;23.470;2022-10-17T05:49:59;24.10;;;14.60;;
11052;SDS011;55230;42.602;23.470;2022-10-17T05:52:26;34.90;;;19.17;;
11052;SDS011;55230;42.602;23.470;2022-10-17T05:54:54;28.97;;;19.17;;
11052;SDS011;55230;42.602;23.470;2022-10-17T05:57:23;43.13;;;23.83;;
11052;SDS011;55230;42.602;23.470;2022-10-17T05:59:50;30.37;;;17.50;;
11052;SDS011;55230;42.602;23.470;2022-10-17T06:02:17;38.10;;;20.57;;
11052;SDS011;55230;42.602;23.470;2022-10-17T06:04:44;30.80;;;19.37;;
11052;SDS011;55230;42.602;23.470;2022-10-17T06:07:12;23.57;;;17.03;;
11052;SDS011;55230;42.602;23.470;2022-10-17T06:09:39;16.70;;;11.77;;
11052;SDS011;55230;42.602;23.470;2022-10-17T06:12:07;19.57;;;13.10;;
11052;SDS011;55230;42.602;23.470;2022-10-17T06:14:34;22.37;;;12.63;;
11052;SDS011;55230;42.602;23.470;2022-10-17T06:17:01;19.33;;;13.57;;
11052;SDS011;55230;42.602;23.470;2022-10-17T06:19:28;22.17;;;14.87;;
11052;SDS011;55230;42.602;23.470;2022-10-17T06:21:54;19.00;;;12.63;;
11052;SDS011;55230;42.602;23.470;2022-10-17T06:24:21;23.67;;;13.30;;
11052;SDS011;55230;42.602;23.470;2022-10-17T06:26:48;16.53;;;12.00;;
11052;SDS011;55230;42.602;23.470;2022-10-17T06:29:16;22.60;;;14.83;;
11052;SDS011;55230;42.602;23.470;2022-10-17T06:31:43;18.37;;;13.43;;
11052;SDS011;55230;42.602;23.470;2022-10-17T06:34:10;16.37;;;12.43;;
11052;SDS011;55230;42.602;23.470;2022-10-17T06:36:36;16.23;;;11.10;;
11052;SDS011;55230;42.602;23.470;2022-10-17T06:39:03;12.53;;;10.73;;
11052;SDS011;55230;42.602;23.470;2022-10-17T06:41:30;16.77;;;12.50;;
11052;SDS011;55230;42.602;23.470;2022-10-17T06:43:57;16.87;;;12.17;;
11052;SDS011;55230;42.602;23.470;2022-10-17T06:46:25;18.60;;;12.67;;
11052;SDS011;55230;42.602;23.470;2022-10-17T06:48:53;18.43;;;12.73;;
11052;SDS011;55230;42.602;23.470;2022-10-17T06:51:20;18.00;;;12.70;;
11052;SDS011;55230;42.602;23.470;2022-10-17T06:53:47;17.27;;;13.23;;
11052;SDS011;55230;42.602;23.470;2022-10-17T06:56:14;19.53;;;12.50;;
11052;SDS011;55230;42.602;23.470;2022-10-17T06:58:40;14.57;;;12.67;;
11052;SDS011;55230;42.602;23.470;2022-10-17T07:01:08;20.00;;;12.93;;
11052;SDS011;55230;42.602;23.470;2022-10-17T07:03:38;14.70;;;11.50;;
11052;SDS011;55230;42.602;23.470;2022-10-17T07:06:06;17.80;;;13.20;;
11052;SDS011;55230;42.602;23.470;2022-10-17T07:08:34;15.50;;;12.70;;
11052;SDS011;55230;42.602;23.470;2022-10-17T07:11:07;18.20;;;12.80;;
11052;SDS011;55230;42.602;23.470;2022-10-17T07:13:34;17.83;;;12.80;;
11052;SDS011;55230;42.602;23.470;2022-10-17T07:16:01;16.37;;;12.60;;
11052;SDS011;55230;42.602;23.470;2022-10-17T07:18:28;14.80;;;11.90;;
11052;SDS011;55230;42.602;23.470;2022-10-17T07:20:57;15.90;;;12.67;;
11052;SDS011;55230;42.602;23.470;2022-10-17T07:23:23;16.70;;;11.90;;
11052;SDS011;55230;42.602;23.470;2022-10-17T07:25:50;18.00;;;13.80;;
11052;SDS011;55230;42.602;23.470;2022-10-17T07:28:18;15.47;;;12.40;;
11052;SDS011;55230;42.602;23.470;2022-10-17T07:30:45;16.83;;;12.67;;
11052;SDS011;55230;42.602;23.470;2022-10-17T07:33:12;17.50;;;12.87;;
11052;SDS011;55230;42.602;23.470;2022-10-17T07:35:38;15.97;;;12.23;;
11052;SDS011;55230;42.602;23.470;2022-10-17T07:38:07;17.27;;;12.93;;
11052;SDS011;55230;42.602;23.470;2022-10-17T07:40:34;15.53;;;13.20;;
11052;SDS011;55230;42.602;23.470;2022-10-17T07:43:01;16.70;;;12.70;;
11052;SDS011;55230;42.602;23.470;2022-10-17T07:45:27;16.57;;;12.87;;
11052;SDS011;55230;42.602;23.470;2022-10-17T07:47:54;18.60;;;13.27;;
11052;SDS011;55230;42.602;23.470;2022-10-17T07:50:22;17.03;;;13.13;;
11052;SDS011;55230;42.602;23.470;2022-10-17T07:52:49;19.17;;;13.17;;
11052;SDS011;55230;42.602;23.470;2022-10-17T07:55:17;15.47;;;12.43;;
11052;SDS011;55230;42.602;23.470;2022-10-17T07:57:44;17.63;;;12.63;;
11052;SDS011;55230;42.602;23.470;2022-10-17T08:00:11;16.10;;;13.63;;
11052;SDS011;55230;42.602;23.470;2022-10-17T08:02:38;18.13;;;13.67;;
11052;SDS011;55230;42.602;23.470;2022-10-17T08:05:05;17.93;;;12.07;;
11052;SDS011;55230;42.602;23.470;2022-10-17T08:07:32;19.13;;;12.57;;
11052;SDS011;55230;42.602;23.470;2022-10-17T08:09:59;15.87;;;12.03;;
11052;SDS011;55230;42.602;23.470;2022-10-17T08:12:27;18.10;;;13.17;;
11052;SDS011;55230;42.602;23.470;2022-10-17T08:14:56;16.27;;;12.70;;
11052;SDS011;55230;42.602;23.470;2022-10-17T08:17:23;17.73;;;12.33;;
11052;SDS011;55230;42.602;23.470;2022-10-17T08:19:50;12.30;;;10.87;;
11052;SDS011;55230;42.602;23.470;2022-10-17T08:22:16;16.53;;;12.00;;
11052;SDS011;55230;42.602;23.470;2022-10-17T08:24:43;12.57;;;10.73;;
11052;SDS011;55230;42.602;23.470;2022-10-17T08:27:10;14.97;;;10.37;;
11052;SDS011;55230;42.602;23.470;2022-10-17T08:29:39;15.63;;;10.97;;
11052;SDS011;55230;42.602;23.470;2022-10-17T08:32:06;14.37;;;10.43;;
11052;SDS011;55230;42.602;23.470;2022-10-17T08:34:33;13.27;;;9.97;;
11052;SDS011;55230;42.602;23.470;2022-10-17T08:37:00;11.67;;;9.47;;
11052;SDS011;55230;42.602;23.470;2022-10-17T08:39:27;9.63;;;7.57;;
11052;SDS011;55230;42.602;23.470;2022-10-17T08:41:58;12.13;;;8.57;;
11052;SDS011;55230;42.602;23.470;2022-10-17T08:44:41;8.87;;;7.03;;
11052;SDS011;55230;42.602;23.470;2022-10-17T08:47:18;8.67;;;6.10;;
11052;SDS011;55230;42.602;23.470;2022-10-17T08:49:52;6.80;;;5.67;;
11052;SDS011;55230;42.602;23.470;2022-10-17T08:52:24;6.43;;;5.27;;
11052;SDS011;55230;42.602;23.470;2022-10-17T08:54:57;5.23;;;4.13;;
11052;SDS011;55230;42.602;23.470;2022-10-17T08:57:24;5.67;;;4.30;;
11052;SDS011;55230;42.602;23.470;2022-10-17T08:59:54;6.83;;;5.30;;
11052;SDS011;55230;42.602;23.470;2022-10-17T09:02:23;9.17;;;5.37;;
11052;SDS011;55230;42.602;23.470;2022-10-17T09:05:07;4.80;;;4.40;;
11052;SDS011;55230;42.602;23.470;2022-10-17T09:07:50;8.33;;;5.00;;
11052;SDS011;55230;42.602;23.470;2022-10-17T09:10:25;5.50;;;4.23;;
11052;SDS011;55230;42.602;23.470;2022-10-17T09:13:06;6.47;;;4.57;;
11052;SDS011;55230;42.602;23.470;2022-10-17T09:15:52;7.97;;;4.80;;
11052;SDS011;55230;42.602;23.470;2022-10-17T09:18:31;4.30;;;3.90;;
11052;SDS011;55230;42.602;23.470;2022-10-17T09:21:04;5.07;;;4.10;;
11052;SDS011;55230;42.602;23.470;2022-10-17T09:23:44;5.80;;;4.10;;
11052;SDS011;55230;42.602;23.470;2022-10-17T09:26:15;4.17;;;3.77;;
11052;SDS011;55230;42.602;23.470;2022-10-17T09:28:42;4.97;;;3.60;;
11052;SDS011;55230;42.602;23.470;2022-10-17T09:31:13;5.50;;;4.10;;
11052;SDS011;55230;42.602;23.470;2022-10-17T09:33:45;4.93;;;4.10;;
11052;SDS011;55230;42.602;23.470;2022-10-17T09:36:15;5.67;;;3.83;;
11052;SDS011;55230;42.602;23.470;2022-10-17T09:38:46;4.93;;;4.10;;
11052;SDS011;55230;42.602;23.470;2022-10-17T09:41:15;4.83;;;3.73;;
11052;SDS011;55230;42.602;23.470;2022-10-17T09:43:45;4.17;;;3.77;;
11052;SDS011;55230;42.602;23.470;2022-10-17T09:46:16;3.80;;;3.30;;
11052;SDS011;55230;42.602;23.470;2022-10-17T09:48:50;4.80;;;3.73;;
11052;SDS011;55230;42.602;23.470;2022-10-17T09:51:20;4.50;;;3.20;;
11052;SDS011;55230;42.602;23.470;2022-10-17T09:53:49;5.17;;;3.20;;
11052;SDS011;55230;42.602;23.470;2022-10-17T09:56:19;6.00;;;3.30;;
11052;SDS011;55230;42.602;23.470;2022-10-17T09:58:47;5.13;;;3.70;;
11052;SDS011;55230;42.602;23.470;2022-10-17T10:01:19;7.07;;;3.90;;
11052;SDS011;55230;42.602;23.470;2022-10-17T10:03:47;5.97;;;3.70;;
11052;SDS011;55230;42.602;23.470;2022-10-17T10:06:33;3.90;;;3.23;;
11052;SDS011;55230;42.602;23.470;2022-10-17T10:09:00;4.27;;;3.87;;
11052;SDS011;55230;42.602;23.470;2022-10-17T10:11:43;4.30;;;3.90;;
11052;SDS011;55230;42.602;23.470;2022-10-17T10:14:27;4.97;;;3.93;;
11052;SDS011;55230;42.602;23.470;2022-10-17T10:16:59;3.87;;;3.57;;
11052;SDS011;55230;42.602;23.470;2022-10-17T10:19:27;6.03;;;3.60;;
11052;SDS011;55230;42.602;23.470;2022-10-17T10:21:56;5.63;;;3.90;;
11052;SDS011;55230;42.602;23.470;2022-10-17T10:24:25;4.77;;;3.93;;
11052;SDS011;55230;42.602;23.470;2022-10-17T10:26:53;6.53;;;4.03;;
11052;SDS011;55230;42.602;23.470;2022-10-17T10:29:23;4.93;;;3.80;;
11052;SDS011;55230;42.602;23.470;2022-10-17T10:31:54;7.27;;;4.13;;
11052;SDS011;55230;42.602;23.470;2022-10-17T10:34:26;6.93;;;3.70;;
11052;SDS011;55230;42.602;23.470;2022-10-17T10:36:56;4.13;;;3.73;;
11052;SDS011;55230;42.602;23.470;2022-10-17T10:39:36;6.20;;;3.60;;
11052;SDS011;55230;42.602;23.470;2022-10-17T10:42:16;4.47;;;3.50;;
11052;SDS011;55230;42.602;23.470;2022-10-17T10:44:46;5.00;;;3.87;;
11052;SDS011;55230;42.602;23.470;2022-10-17T10:47:16;6.77;;;3.77;;
11052;SDS011;55230;42.602;23.470;2022-10-17T10:49:47;4.47;;;3.63;;
11052;SDS011;55230;42.602;23.470;2022-10-17T10:55:13;4.50;;;3.43;;
11052;SDS011;55230;42.602;23.470;2022-10-17T10:57:43;6.33;;;3.80;;
11052;SDS011;55230;42.602;23.470;2022-10-17T11:00:14;5.43;;;3.90;;
11052;SDS011;55230;42.602;23.470;2022-10-17T11:02:45;5.20;;;3.67;;
11052;SDS011;55230;42.602;23.470;2022-10-17T11:05:22;3.60;;;3.10;;
11052;SDS011;55230;42.602;23.470;2022-10-17T11:07:57;6.27;;;4.17;;
11052;SDS011;55230;42.602;23.470;2022-10-17T11:10:30;4.20;;;3.57;;
11052;SDS011;55230;42.602;23.470;2022-10-17T11:13:03;4.10;;;3.50;;
11052;SDS011;55230;42.602;23.470;2022-10-17T11:15:38;4.03;;;3.33;;
11052;SDS011;55230;42.602;23.470;2022-10-17T11:18:10;4.63;;;3.17;;
11052;SDS011;55230;42.602;23.470;2022-10-17T11:20:47;5.63;;;3.40;;
11052;SDS011;55230;42.602;23.470;2022-10-17T11:23:20;3.30;;;3.00;;
11052;SDS011;55230;42.602;23.470;2022-10-17T11:25:51;4.07;;;3.10;;
11052;SDS011;55230;42.602;23.470;2022-10-17T11:28:20;3.63;;;3.20;;
11052;SDS011;55230;42.602;23.470;2022-10-17T11:30:50;3.87;;;3.33;;
11052;SDS011;55230;42.602;23.470;2022-10-17T11:33:24;3.27;;;2.90;;
11052;SDS011;55230;42.602;23.470;2022-10-17T11:35:56;5.70;;;3.50;;
11052;SDS011;55230;42.602;23.470;2022-10-17T11:38:32;10.43;;;6.40;;
11052;SDS011;55230;42.602;23.470;2022-10-17T11:41:05;5.00;;;3.30;;
11052;SDS011;55230;42.602;23.470;2022-10-17T11:43:39;5.47;;;4.03;;
11052;SDS011;55230;42.602;23.470;2022-10-17T11:46:13;3.40;;;3.10;;
11052;SDS011;55230;42.602;23.470;2022-10-17T11:48:55;5.03;;;3.70;;
11052;SDS011;55230;42.602;23.470;2022-10-17T11:51:27;4.80;;;3.37;;
11052;SDS011;55230;42.602;23.470;2022-10-17T11:54:01;5.00;;;3.30;;
11052;SDS011;55230;42.602;23.470;2022-10-17T11:56:33;4.03;;;3.23;;
11052;SDS011;55230;42.602;23.470;2022-10-17T11:59:12;4.13;;;3.10;;
11052;SDS011;55230;42.602;23.470;2022-10-17T12:02:03;3.60;;;3.10;;
11052;SDS011;55230;42.602;23.470;2022-10-17T12:04:38;5.30;;;3.20;;
11052;SDS011;55230;42.602;23.470;2022-10-17T12:07:17;4.13;;;3.27;;
11052;SDS011;55230;42.602;23.470;2022-10-17T12:09:50;3.20;;;2.90;;
11052;SDS011;55230;42.602;23.470;2022-10-17T12:12:25;3.20;;;2.90;;
11052;SDS011;55230;42.602;23.470;2022-10-17T12:14:53;5.33;;;3.20;;
11052;SDS011;55230;42.602;23.470;2022-10-17T12:17:40;5.00;;;3.53;;
11052;SDS011;55230;42.602;23.470;2022-10-17T12:20:23;4.33;;;3.33;;
11052;SDS011;55230;42.602;23.470;2022-10-17T12:22:54;3.30;;;2.87;;
11052;SDS011;55230;42.602;23.470;2022-10-17T12:25:30;3.90;;;2.97;;
11052;SDS011;55230;42.602;23.470;2022-10-17T12:28:03;3.57;;;2.97;;
11052;SDS011;55230;42.602;23.470;2022-10-17T12:30:47;4.20;;;3.10;;
11052;SDS011;55230;42.602;23.470;2022-10-17T12:33:16;5.30;;;3.00;;
11052;SDS011;55230;42.602;23.470;2022-10-17T12:35:46;3.60;;;3.30;;
11052;SDS011;55230;42.602;23.470;2022-10-17T12:38:20;3.03;;;2.60;;
11052;SDS011;55230;42.602;23.470;2022-10-17T12:40:58;2.87;;;2.67;;
11052;SDS011;55230;42.602;23.470;2022-10-17T12:46:40;3.80;;;2.73;;
11052;SDS011;55230;42.602;23.470;2022-10-17T12:54:55;2.87;;;2.43;;
11052;SDS011;55230;42.602;23.470;2022-10-17T12:57:28;2.97;;;2.63;;
11052;SDS011;55230;42.602;23.470;2022-10-17T13:00:00;2.60;;;2.17;;
11052;SDS011;55230;42.602;23.470;2022-10-17T13:02:29;3.27;;;2.37;;
11052;SDS011;55230;42.602;23.470;2022-10-17T13:05:02;2.23;;;2.03;;
11052;SDS011;55230;42.602;23.470;2022-10-17T13:07:32;2.20;;;2.00;;
11052;SDS011;55230;42.602;23.470;2022-10-17T13:10:03;2.30;;;2.07;;
11052;SDS011;55230;42.602;23.470;2022-10-17T13:12:31;2.83;;;2.40;;
11052;SDS011;55230;42.602;23.470;2022-10-17T13:15:02;2.33;;;2.10;;
11052;SDS011;55230;42.602;23.470;2022-10-17T13:17:33;2.43;;;2.20;;
11052;SDS011;55230;42.602;23.470;2022-10-17T13:20:00;3.00;;;2.20;;
11052;SDS011;55230;42.602;23.470;2022-10-17T13:22:28;2.00;;;1.90;;
11052;SDS011;55230;42.602;23.470;2022-10-17T13:25:08;2.47;;;1.80;;
11052;SDS011;55230;42.602;23.470;2022-10-17T13:27:40;1.97;;;1.83;;
11052;SDS011;55230;42.602;23.470;2022-10-17T13:30:20;2.10;;;1.90;;
11052;SDS011;55230;42.602;23.470;2022-10-17T13:32:49;6.20;;;2.10;;
11052;SDS011;55230;42.602;23.470;2022-10-17T13:35:21;2.37;;;1.70;;
11052;SDS011;55230;42.602;23.470;2022-10-17T13:37:49;1.97;;;1.60;;
11052;SDS011;55230;42.602;23.470;2022-10-17T13:40:19;2.23;;;2.03;;
11052;SDS011;55230;42.602;23.470;2022-10-17T13:42:48;1.97;;;1.87;;
11052;SDS011;55230;42.602;23.470;2022-10-17T13:45:17;2.20;;;2.00;;
11052;SDS011;55230;42.602;23.470;2022-10-17T13:47:47;4.07;;;1.90;;
11052;SDS011;55230;42.602;23.470;2022-10-17T13:50:22;3.10;;;1.87;;
11052;SDS011;55230;42.602;23.470;2022-10-17T13:53:13;2.23;;;1.93;;
11052;SDS011;55230;42.602;23.470;2022-10-17T13:55:54;3.57;;;2.43;;
11052;SDS011;55230;42.602;23.470;2022-10-17T13:58:23;3.37;;;1.90;;
11052;SDS011;55230;42.602;23.470;2022-10-17T14:00:50;4.77;;;2.30;;
11052;SDS011;55230;42.602;23.470;2022-10-17T14:03:18;2.67;;;2.47;;
11052;SDS011;55230;42.602;23.470;2022-10-17T14:06:03;3.90;;;2.30;;
11052;SDS011;55230;42.602;23.470;2022-10-17T14:08:34;3.67;;;2.27;;
11052;SDS011;55230;42.602;23.470;2022-10-17T14:11:06;4.40;;;3.07;;
11052;SDS011;55230;42.602;23.470;2022-10-17T14:13:39;8.17;;;4.17;;
11052;SDS011;55230;42.602;23.470;2022-10-17T14:16:08;5.67;;;3.87;;
11052;SDS011;55230;42.602;23.470;2022-10-17T14:18:35;16.50;;;7.67;;
11052;SDS011;55230;42.602;23.470;2022-10-17T14:21:04;17.73;;;7.87;;
11052;SDS011;55230;42.602;23.470;2022-10-17T14:23:34;9.10;;;4.87;;
11052;SDS011;55230;42.602;23.470;2022-10-17T14:26:08;8.23;;;5.10;;
11052;SDS011;55230;42.602;23.470;2022-10-17T14:28:37;10.87;;;5.00;;
11052;SDS011;55230;42.602;23.470;2022-10-17T14:31:12;10.00;;;4.23;;
11052;SDS011;55230;42.602;23.470;2022-10-17T14:33:49;6.00;;;3.80;;
11052;SDS011;55230;42.602;23.470;2022-10-17T14:36:17;4.00;;;3.23;;
11052;SDS011;55230;42.602;23.470;2022-10-17T14:38:45;4.97;;;2.83;;
11052;SDS011;55230;42.602;23.470;2022-10-17T14:41:18;4.17;;;2.60;;
11052;SDS011;55230;42.602;23.470;2022-10-17T14:43:52;4.17;;;2.97;;
11052;SDS011;55230;42.602;23.470;2022-10-17T14:46:20;4.23;;;2.80;;
11052;SDS011;55230;42.602;23.470;2022-10-17T14:48:50;3.40;;;3.07;;
11052;SDS011;55230;42.602;23.470;2022-10-17T14:51:19;3.30;;;2.60;;
11052;SDS011;55230;42.602;23.470;2022-10-17T14:53:58;3.70;;;2.93;;
11052;SDS011;55230;42.602;23.470;2022-10-17T14:56:34;5.13;;;3.80;;